Time;durP1;ratioP1;P1;durP2;ratioP2;P2;SDS_P1;SDS_P2;PMS_P1;PMS_P2;Temp;Humidity;BMP_temperature;BMP_pressure;BME280_temperature;BME280_humidity;BME280_pressure;Samples;Min_cycle;Max_cycle;Signal;HPM_P1;HPM_P2
2021/06/20 00:01:28;;;;;;;8.33;7.53;;;19.70;99.90;;;;;;6323237;28;20332;-72
2021/06/20 00:04:30;;;;;;;8.50;7.67;;;19.70;99.90;;;;;;6321758;28;20194;-72
2021/06/20 00:07:32;;;;;;;8.13;7.43;;;19.70;99.90;;;;;;6321816;28;20178;-72
2021/06/20 00:10:37;;;;;;;7.57;6.90;;;19.70;99.90;;;;;;6321122;28;20198;-72
2021/06/20 00:13:39;;;;;;;7.77;7.17;;;19.70;99.90;;;;;;6323062;28;20179;-72
2021/06/20 00:16:42;;;;;;;8.47;7.67;;;19.70;99.90;;;;;;6321167;28;20206;-72
2021/06/20 00:19:44;;;;;;;8.90;8.00;;;19.70;99.90;;;;;;6321434;28;20193;-72
2021/06/20 00:22:47;;;;;;;8.47;7.77;;;19.70;99.90;;;;;;6321411;28;20210;-71
2021/06/20 00:25:49;;;;;;;8.53;7.77;;;19.70;99.90;;;;;;6321594;28;20638;-71
2021/06/20 00:28:51;;;;;;;8.37;7.67;;;19.70;99.90;;;;;;6322582;28;20567;-71
2021/06/20 00:31:55;;;;;;;9.03;7.73;;;19.70;99.90;;;;;;6322200;28;20182;-71
2021/06/20 00:34:57;;;;;;;7.93;7.23;;;19.60;99.90;;;;;;6323759;28;20653;-71
2021/06/20 00:38:00;;;;;;;8.17;7.47;;;19.60;99.90;;;;;;6322078;28;20213;-71
2021/06/20 00:41:03;;;;;;;8.53;7.83;;;19.60;99.90;;;;;;6323810;28;20214;-71
2021/06/20 00:44:05;;;;;;;9.13;8.33;;;19.60;99.90;;;;;;6323511;28;20568;-71
2021/06/20 00:47:07;;;;;;;8.30;7.40;;;19.50;99.90;;;;;;6321785;28;20540;-71
2021/06/20 00:50:12;;;;;;;9.10;8.30;;;19.50;99.90;;;;;;6323639;28;20182;-71
2021/06/20 00:53:14;;;;;;;9.40;8.53;;;19.40;99.90;;;;;;6321867;28;20323;-71
2021/06/20 00:56:17;;;;;;;8.67;7.90;;;19.40;99.90;;;;;;6323112;28;20205;-71
2021/06/20 00:59:20;;;;;;;10.33;9.43;;;19.30;99.90;;;;;;6322191;28;20265;-71
2021/06/20 01:02:22;;;;;;;8.90;8.20;;;19.30;99.90;;;;;;6322019;28;20225;-71
2021/06/20 01:05:25;;;;;;;10.20;8.93;;;19.20;99.90;;;;;;6326391;28;20223;-71
2021/06/20 01:08:28;;;;;;;9.23;8.43;;;19.10;99.90;;;;;;6318994;28;20265;-71
2021/06/20 01:11:31;;;;;;;9.97;9.07;;;19.10;99.90;;;;;;6326055;28;20225;-71
2021/06/20 01:14:35;;;;;;;8.87;8.17;;;19.00;99.90;;;;;;6322839;28;20190;-71
2021/06/20 01:17:37;;;;;;;10.67;8.80;;;19.00;99.90;;;;;;6320765;28;20190;-71
2021/06/20 01:20:40;;;;;;;9.47;8.57;;;19.00;99.90;;;;;;6322659;28;20564;-71
2021/06/20 01:23:43;;;;;;;8.90;8.10;;;19.00;99.90;;;;;;6321105;28;20661;-71
2021/06/20 01:26:45;;;;;;;9.43;8.53;;;19.00;99.90;;;;;;6322730;28;20178;-71
2021/06/20 01:29:48;;;;;;;9.40;8.60;;;18.80;99.90;;;;;;6322076;28;20269;-71
2021/06/20 01:32:52;;;;;;;9.77;8.87;;;18.70;99.90;;;;;;6321037;28;20201;-71
2021/06/20 01:35:54;;;;;;;9.27;8.47;;;18.80;99.90;;;;;;6321007;28;20705;-71
2021/06/20 01:38:57;;;;;;;10.47;9.47;;;18.80;99.90;;;;;;6320676;28;20235;-71
2021/06/20 01:42:00;;;;;;;10.43;9.37;;;18.80;99.90;;;;;;6320733;28;20210;-71
2021/06/20 01:45:05;;;;;;;9.43;8.63;;;18.80;99.90;;;;;;6320548;28;20194;-71
2021/06/20 01:48:07;;;;;;;9.90;9.07;;;18.70;99.90;;;;;;6322166;28;20709;-71
2021/06/20 01:51:10;;;;;;;9.30;8.47;;;18.70;99.90;;;;;;6322133;28;20273;-71
2021/06/20 01:54:12;;;;;;;9.80;8.90;;;18.70;99.90;;;;;;6320234;28;20216;-71
2021/06/20 01:57:15;;;;;;;9.80;8.80;;;18.70;99.90;;;;;;6320684;28;20198;-71
2021/06/20 02:00:17;;;;;;;9.90;9.00;;;18.70;99.90;;;;;;6321280;28;20186;-71
2021/06/20 02:03:23;;;;;;;9.50;8.70;;;18.70;99.90;;;;;;6321702;28;20217;-71
2021/06/20 02:06:25;;;;;;;10.47;9.43;;;18.60;99.90;;;;;;6319936;28;20274;-71
2021/06/20 02:09:28;;;;;;;10.30;9.30;;;18.60;99.90;;;;;;6320084;28;20646;-71
2021/06/20 02:12:30;;;;;;;35.83;11.30;;;18.50;99.90;;;;;;6321616;28;20229;-71
2021/06/20 02:15:34;;;;;;;18.67;10.30;;;18.40;99.90;;;;;;6321192;28;20657;-71
2021/06/20 02:18:36;;;;;;;11.73;9.30;;;18.40;99.90;;;;;;6321462;28;20548;-71
2021/06/20 02:21:38;;;;;;;14.70;10.07;;;18.30;99.90;;;;;;6319701;28;20220;-71
2021/06/20 02:24:40;;;;;;;10.93;9.87;;;18.30;99.90;;;;;;6320107;28;20194;-71
2021/06/20 02:27:45;;;;;;;10.70;9.70;;;18.20;99.90;;;;;;6321406;28;20197;-71
2021/06/20 02:30:47;;;;;;;11.13;10.03;;;18.20;99.90;;;;;;6319812;28;20541;-71
2021/06/20 02:33:50;;;;;;;10.77;9.70;;;18.20;99.90;;;;;;6303160;28;20196;-71
2021/06/20 02:36:52;;;;;;;10.60;9.60;;;18.20;99.90;;;;;;6319799;28;20213;-71
2021/06/20 02:39:55;;;;;;;11.30;10.30;;;18.20;99.90;;;;;;6320089;28;20190;-71
2021/06/20 02:42:57;;;;;;;10.97;10.07;;;18.20;99.90;;;;;;6319796;28;20213;-71
2021/06/20 02:45:59;;;;;;;11.27;9.77;;;18.20;99.90;;;;;;6320921;28;20522;-71
2021/06/20 02:49:02;;;;;;;10.77;9.87;;;18.10;99.90;;;;;;6319847;28;20190;-71
2021/06/20 02:52:06;;;;;;;10.37;9.57;;;18.20;99.90;;;;;;6320915;28;20235;-72
2021/06/20 02:55:08;;;;;;;10.17;9.27;;;18.20;99.90;;;;;;6303020;28;20194;-71
2021/06/20 02:58:11;;;;;;;10.00;9.10;;;18.10;99.90;;;;;;6320846;28;20190;-71
2021/06/20 03:01:13;;;;;;;10.77;9.77;;;18.10;99.90;;;;;;6319408;28;20654;-71
2021/06/20 03:04:15;;;;;;;10.43;9.57;;;18.20;99.90;;;;;;6320989;28;20511;-71
2021/06/20 03:07:18;;;;;;;10.33;9.33;;;18.20;99.90;;;;;;6319466;28;20189;-71
2021/06/20 03:10:20;;;;;;;10.07;9.17;;;18.30;99.90;;;;;;6319592;28;20190;-71
2021/06/20 03:13:22;;;;;;;9.60;8.80;;;18.40;99.90;;;;;;6320463;28;20201;-71
2021/06/20 03:16:24;;;;;;;9.93;9.03;;;18.40;99.90;;;;;;6319711;28;20192;-71
2021/06/20 03:19:27;;;;;;;9.90;9.00;;;18.40;99.90;;;;;;6325766;28;20213;-71
2021/06/20 03:22:29;;;;;;;10.10;9.23;;;18.40;99.90;;;;;;6323834;28;20214;-71
2021/06/20 03:25:31;;;;;;;10.37;9.37;;;18.40;99.90;;;;;;6324043;28;20182;-71
2021/06/20 03:28:33;;;;;;;10.43;9.63;;;18.30;99.90;;;;;;6324503;28;20220;-71
2021/06/20 03:31:35;;;;;;;10.77;9.87;;;18.30;99.90;;;;;;6323514;28;20206;-71
2021/06/20 03:34:38;;;;;;;10.50;9.50;;;18.20;99.90;;;;;;6324382;28;20182;-71
2021/06/20 03:37:41;;;;;;;10.40;9.30;;;18.20;99.90;;;;;;6323054;28;20206;-72
2021/06/20 03:40:43;;;;;;;10.70;9.70;;;18.20;99.90;;;;;;6323112;28;20210;-71
2021/06/20 03:43:46;;;;;;;10.13;9.20;;;18.20;99.90;;;;;;6322707;28;20210;-71
2021/06/20 03:46:48;;;;;;;15.17;10.03;;;18.20;99.90;;;;;;6324460;28;20177;-71
2021/06/20 03:49:50;;;;;;;10.57;9.47;;;18.20;99.90;;;;;;6324282;28;20186;-71
2021/06/20 03:52:53;;;;;;;10.67;9.67;;;18.20;99.90;;;;;;6324017;28;20200;-71
2021/06/20 03:55:56;;;;;;;9.63;8.83;;;18.20;99.90;;;;;;6323861;28;20208;-71
2021/06/20 03:58:58;;;;;;;11.87;9.37;;;18.30;99.90;;;;;;6322429;28;20196;-71
2021/06/20 04:02:00;;;;;;;9.77;8.90;;;18.30;99.90;;;;;;6324588;28;20202;-71
2021/06/20 04:05:04;;;;;;;9.80;8.90;;;18.30;99.90;;;;;;6324009;28;20182;-71
2021/06/20 04:08:06;;;;;;;11.40;10.30;;;18.40;99.90;;;;;;6322600;28;20542;-71
2021/06/20 04:11:08;;;;;;;9.30;8.50;;;18.50;99.90;;;;;;6322417;28;20689;-71
2021/06/20 04:14:10;;;;;;;9.87;9.07;;;18.50;99.90;;;;;;6323640;28;20564;-71
2021/06/20 04:17:12;;;;;;;9.73;8.83;;;18.50;99.90;;;;;;6323917;28;20186;-71
2021/06/20 04:20:15;;;;;;;9.80;8.80;;;18.60;99.90;;;;;;6323425;28;20596;-71
2021/06/20 04:23:17;;;;;;;10.30;9.40;;;18.60;99.90;;;;;;6322379;28;20210;-71
2021/06/20 04:26:20;;;;;;;10.20;9.20;;;18.60;99.90;;;;;;6322482;28;20192;-71
2021/06/20 04:29:22;;;;;;;9.07;8.37;;;18.70;99.90;;;;;;6321307;28;20194;-71
2021/06/20 04:32:24;;;;;;;9.73;8.93;;;18.70;99.90;;;;;;6323596;28;20186;-71
2021/06/20 04:35:27;;;;;;;11.13;9.33;;;18.70;99.90;;;;;;6304926;28;20198;-71
2021/06/20 04:38:29;;;;;;;11.90;9.87;;;18.80;99.90;;;;;;6305381;28;20248;-72
2021/06/20 04:41:31;;;;;;;10.53;9.50;;;18.80;99.90;;;;;;6322208;28;20202;-71
2021/06/20 04:44:43;;;;;;;10.07;9.07;;;18.80;99.90;;;;;;6321545;28;20216;-71
2021/06/20 04:47:45;;;;;;;10.53;9.53;;;18.90;99.90;;;;;;6321980;28;20166;-71
2021/06/20 04:50:47;;;;;;;11.43;10.33;;;18.90;99.90;;;;;;6321336;28;20681;-71
2021/06/20 04:53:49;;;;;;;11.23;10.17;;;19.00;99.90;;;;;;6321513;28;20197;-71
2021/06/20 04:56:51;;;;;;;10.43;9.53;;;19.00;99.90;;;;;;6322689;28;20197;-71
2021/06/20 04:59:57;;;;;;;9.83;9.03;;;19.10;99.90;;;;;;6296450;28;20729;-71
2021/06/20 05:02:59;;;;;;;10.43;9.53;;;19.20;99.90;;;;;;6297677;28;20245;-71
2021/06/20 05:06:01;;;;;;;10.60;9.77;;;19.20;99.90;;;;;;6295697;28;20224;-71
2021/06/20 05:09:05;;;;;;;10.33;9.23;;;19.20;99.90;;;;;;6296765;28;20198;-71
2021/06/20 05:12:08;;;;;;;9.70;8.80;;;19.20;99.90;;;;;;6298212;28;20708;-71
2021/06/20 05:15:11;;;;;;;9.57;8.77;;;19.30;99.90;;;;;;6298468;28;20241;-71
2021/06/20 05:18:13;;;;;;;9.87;9.07;;;19.30;99.90;;;;;;6297972;28;20197;-71
2021/06/20 05:21:16;;;;;;;10.20;9.30;;;19.40;99.90;;;;;;6297119;28;20197;-71
2021/06/20 05:24:18;;;;;;;9.43;8.63;;;19.40;99.90;;;;;;6297793;28;20179;-71
2021/06/20 05:27:20;;;;;;;10.03;9.13;;;19.50;99.90;;;;;;6300107;28;20666;-71
2021/06/20 05:30:23;;;;;;;9.67;8.83;;;19.60;99.90;;;;;;6321238;28;20364;-71
2021/06/20 05:33:25;;;;;;;9.67;8.87;;;19.70;99.90;;;;;;6322017;28;20193;-71
2021/06/20 05:36:28;;;;;;;9.73;8.83;;;19.70;99.90;;;;;;6321367;28;20221;-71
2021/06/20 05:39:30;;;;;;;10.37;9.37;;;19.80;99.90;;;;;;6320188;28;20513;-71
2021/06/20 05:42:33;;;;;;;9.17;8.37;;;19.90;99.90;;;;;;6316238;28;20217;-71
2021/06/20 05:45:35;;;;;;;9.33;8.53;;;20.00;99.90;;;;;;6319077;28;20192;-71
2021/06/20 05:48:38;;;;;;;9.03;8.33;;;20.10;99.90;;;;;;6318580;28;20178;-71
2021/06/20 05:51:40;;;;;;;8.97;8.23;;;20.20;99.90;;;;;;6320244;28;20186;-71
2021/06/20 05:54:49;;;;;;;8.53;7.80;;;20.30;99.90;;;;;;6318420;28;20544;-71
2021/06/20 05:57:51;;;;;;;8.90;8.17;;;20.50;99.90;;;;;;6317994;28;20568;-72
2021/06/20 06:00:54;;;;;;;8.40;7.70;;;20.60;99.90;;;;;;6319200;28;20573;-71
2021/06/20 06:03:56;;;;;;;9.53;8.70;;;20.70;99.90;;;;;;6318665;28;20681;-71
2021/06/20 06:06:58;;;;;;;9.60;8.67;;;20.80;99.90;;;;;;6319715;28;20551;-71
2021/06/20 06:10:02;;;;;;;9.90;8.93;;;20.90;99.90;;;;;;6319956;28;20557;-71
2021/06/20 06:13:05;;;;;;;9.93;9.03;;;20.90;99.90;;;;;;6319375;28;20743;-71
2021/06/20 06:16:07;;;;;;;9.80;8.83;;;21.00;99.90;;;;;;6318345;28;20193;-71
2021/06/20 06:19:09;;;;;;;10.33;9.30;;;21.20;99.90;;;;;;6319292;28;20263;-71
2021/06/20 06:22:12;;;;;;;10.27;9.37;;;21.30;99.90;;;;;;6319636;28;20206;-71
2021/06/20 06:25:15;;;;;;;9.87;8.97;;;21.50;99.90;;;;;;6318046;28;20210;-71
2021/06/20 06:28:18;;;;;;;10.13;9.23;;;21.70;99.90;;;;;;6318480;28;20640;-71
2021/06/20 06:31:20;;;;;;;9.17;8.47;;;21.90;99.90;;;;;;6316356;28;20186;-71
2021/06/20 06:34:22;;;;;;;10.93;9.27;;;22.10;99.90;;;;;;6315120;28;20197;-71
2021/06/20 06:37:24;;;;;;;10.57;9.60;;;22.30;99.90;;;;;;6315551;28;20239;-71
2021/06/20 06:40:29;;;;;;;9.63;8.83;;;22.70;99.90;;;;;;6315530;28;20202;-71
2021/06/20 06:43:31;;;;;;;9.67;8.70;;;23.10;99.90;;;;;;6315241;28;20217;-71
2021/06/20 06:46:33;;;;;;;9.37;8.40;;;23.50;99.90;;;;;;6317487;28;20183;-71
2021/06/20 06:49:36;;;;;;;8.93;8.13;;;24.00;99.90;;;;;;6317303;28;20542;-71
2021/06/20 06:52:38;;;;;;;10.17;8.93;;;24.30;99.90;;;;;;6321171;28;20186;-71
2021/06/20 06:55:40;;;;;;;9.10;8.30;;;24.60;99.90;;;;;;6323413;28;20190;-71
2021/06/20 06:58:42;;;;;;;8.67;7.97;;;24.90;99.90;;;;;;6325285;28;20202;-71
2021/06/20 07:01:45;;;;;;;8.47;7.80;;;25.20;99.90;;;;;;6324757;28;20194;-71
2021/06/20 07:04:47;;;;;;;8.10;7.40;;;25.50;99.90;;;;;;6322816;28;20646;-71
2021/06/20 07:07:55;;;;;;;7.83;7.20;;;25.80;99.90;;;;;;6322696;28;20273;-71
2021/06/20 07:10:57;;;;;;;7.65;7.05;;;26.20;99.90;;;;;;6321845;28;20222;-71
2021/06/20 07:14:00;;;;;;;10.73;9.68;;;26.50;99.90;;;;;;6322279;28;20277;-71
2021/06/20 07:17:03;;;;;;;11.10;9.90;;;26.80;99.90;;;;;;6323673;28;20197;-71
2021/06/20 07:20:10;;;;;;;8.93;8.07;;;27.00;99.90;;;;;;6323749;28;20190;-71
2021/06/20 07:23:13;;;;;;;9.25;8.45;;;27.20;99.90;;;;;;6322603;28;20190;-71
2021/06/20 07:26:16;;;;;;;10.10;9.20;;;27.50;99.90;;;;;;6321843;28;20298;-72
2021/06/20 07:29:18;;;;;;;9.85;9.02;;;27.70;99.40;;;;;;6323540;28;20198;-72
2021/06/20 07:32:20;;;;;;;9.90;8.98;;;27.80;98.70;;;;;;6321863;28;20197;-72
2021/06/20 07:35:22;;;;;;;10.52;9.63;;;28.00;98.70;;;;;;6321796;28;20201;-71
2021/06/20 07:38:25;;;;;;;10.60;9.00;;;28.20;96.60;;;;;;6322326;28;20787;-72
2021/06/20 07:41:28;;;;;;;10.20;9.30;;;28.20;96.90;;;;;;6323018;28;20212;-72
2021/06/20 07:44:30;;;;;;;9.88;9.07;;;28.30;95.30;;;;;;6321739;28;20708;-72
2021/06/20 07:47:32;;;;;;;9.48;8.57;;;28.40;95.70;;;;;;6322903;28;20274;-72
2021/06/20 07:50:36;;;;;;;8.18;7.47;;;28.40;96.60;;;;;;6322310;28;20288;-71
2021/06/20 07:53:38;;;;;;;9.13;8.32;;;28.30;96.90;;;;;;6324406;28;20864;-72
2021/06/20 07:56:40;;;;;;;9.05;8.25;;;28.20;96.90;;;;;;6321756;28;20197;-72
2021/06/20 07:59:43;;;;;;;9.88;8.88;;;28.10;97.00;;;;;;6321652;28;20339;-72
2021/06/20 08:02:46;;;;;;;9.20;8.43;;;28.10;96.50;;;;;;6321327;28;20231;-71
2021/06/20 08:05:48;;;;;;;9.27;8.48;;;28.30;97.30;;;;;;6323419;28;20611;-71
2021/06/20 08:08:55;;;;;;;8.77;8.07;;;28.70;97.20;;;;;;6323090;28;20182;-71
2021/06/20 08:11:58;;;;;;;8.55;7.30;;;29.00;96.50;;;;;;6306480;28;20648;-71
2021/06/20 08:15:00;;;;;;;8.82;8.05;;;29.30;96.30;;;;;;6324569;28;20270;-71
2021/06/20 08:18:02;;;;;;;9.38;8.52;;;29.60;95.70;;;;;;6337351;28;20561;-71
2021/06/20 08:21:05;;;;;;;9.23;8.43;;;29.90;94.00;;;;;;6321302;28;20210;-71
2021/06/20 08:24:07;;;;;;;9.52;8.73;;;30.30;93.80;;;;;;6320703;28;20663;-72
2021/06/20 08:27:10;;;;;;;9.07;8.00;;;30.70;92.40;;;;;;6321076;28;20202;-72
2021/06/20 08:30:13;;;;;;;8.55;7.85;;;30.90;91.40;;;;;;6320949;28;20545;-72
2021/06/20 08:33:15;;;;;;;8.40;7.70;;;31.10;91.20;;;;;;6321072;28;20205;-72
2021/06/20 08:36:17;;;;;;;8.10;7.45;;;31.40;90.40;;;;;;6320100;28;20206;-72
2021/06/20 08:39:20;;;;;;;8.73;8.02;;;31.50;88.50;;;;;;6320417;28;20265;-72
2021/06/20 08:42:22;;;;;;;8.55;7.93;;;31.80;88.80;;;;;;6321651;28;20206;-72
2021/06/20 08:45:24;;;;;;;7.25;6.75;;;32.20;88.20;;;;;;6321662;28;20193;-72
2021/06/20 08:48:27;;;;;;;8.10;7.47;;;32.50;86.50;;;;;;6319882;28;20582;-71
2021/06/20 08:51:30;;;;;;;8.77;8.02;;;32.80;83.30;;;;;;6320504;28;20196;-71
2021/06/20 08:54:33;;;;;;;7.90;7.20;;;32.70;74.40;;;;;;6320950;28;20196;-71
2021/06/20 08:57:41;;;;;;;7.80;7.20;;;32.80;76.80;;;;;;6322596;28;20669;-71
2021/06/20 09:00:44;;;;;;;7.75;7.15;;;33.30;78.60;;;;;;6322619;28;20178;-71
2021/06/20 09:03:47;;;;;;;7.93;7.32;;;33.80;77.30;;;;;;6319762;28;20224;-71
2021/06/20 09:06:50;;;;;;;7.40;6.85;;;34.00;71.90;;;;;;6321483;28;20185;-71
2021/06/20 09:09:52;;;;;;;7.10;6.50;;;34.10;72.70;;;;;;6319713;28;20273;-71
2021/06/20 09:12:56;;;;;;;7.57;6.93;;;34.50;73.20;;;;;;6321568;28;20226;-72
2021/06/20 09:16:04;;;;;;;7.85;7.05;;;34.80;70.40;;;;;;6320518;28;20193;-71
2021/06/20 09:19:06;;;;;;;8.55;7.10;;;35.10;68.10;;;;;;6319577;28;20220;-71
2021/06/20 09:22:09;;;;;;;8.13;7.32;;;34.90;60.40;;;;;;6321435;28;20200;-72
2021/06/20 09:25:12;;;;;;;7.50;6.95;;;34.60;60.80;;;;;;6319280;28;20194;-72
2021/06/20 09:28:15;;;;;;;7.88;7.28;;;34.70;63.10;;;;;;6321004;28;20186;-72
2021/06/20 09:31:17;;;;;;;7.70;7.10;;;35.00;63.60;;;;;;6319202;28;20220;-71
2021/06/20 09:34:19;;;;;;;7.15;6.55;;;35.50;60.00;;;;;;6320592;28;20523;-71
2021/06/20 09:37:21;;;;;;;8.30;7.43;;;35.10;58.70;;;;;;6320960;28;20762;-71
2021/06/20 09:40:29;;;;;;;7.10;6.50;;;35.30;59.60;;;;;;6320308;28;20186;-72
2021/06/20 09:43:33;;;;;;;6.72;6.22;;;35.50;57.90;;;;;;6319696;28;20214;-72
2021/06/20 09:46:35;;;;;;;6.85;6.35;;;35.90;59.00;;;;;;6302270;28;20198;-72
2021/06/20 09:49:38;;;;;;;7.75;7.05;;;36.10;56.60;;;;;;6320602;28;20186;-72
2021/06/20 09:52:40;;;;;;;7.10;6.50;;;35.60;54.70;;;;;;6319035;28;20202;-72
2021/06/20 09:55:42;;;;;;;7.47;6.78;;;35.70;55.50;;;;;;6318284;28;20478;-72
2021/06/20 09:58:46;;;;;;;7.35;6.75;;;35.40;53.20;;;;;;6301705;28;20217;-71
2021/06/20 10:01:48;;;;;;;7.00;6.40;;;34.90;53.20;;;;;;6318481;28;20201;-71
2021/06/20 10:04:51;;;;;;;7.57;6.88;;;34.60;55.10;;;;;;6320849;28;20213;-71
2021/06/20 10:07:53;;;;;;;7.30;6.70;;;34.60;55.20;;;;;;6319752;28;20194;-72
2021/06/20 10:10:56;;;;;;;7.10;6.45;;;34.50;54.00;;;;;;6319698;28;20222;-71
2021/06/20 10:13:58;;;;;;;7.50;6.90;;;34.60;54.70;;;;;;6318647;28;20319;-71
2021/06/20 10:17:12;;;;;;;7.55;6.95;;;35.00;53.90;;;;;;6319259;28;20193;-72
2021/06/20 10:20:15;;;;;;;7.25;6.65;;;35.60;53.40;;;;;;6319019;28;20489;-71
2021/06/20 10:23:20;;;;;;;6.28;5.78;;;36.20;53.70;;;;;;6319302;28;20220;-71
2021/06/20 10:26:23;;;;;;;6.95;6.45;;;36.40;53.20;;;;;;6318807;28;20201;-72
2021/06/20 10:29:29;;;;;;;6.32;5.82;;;36.30;52.00;;;;;;6319661;28;20194;-71
2021/06/20 10:32:46;;;;;;;7.15;6.65;;;36.40;51.40;;;;;;6317777;28;20228;-71
2021/06/20 10:36:02;;;;;;;7.43;6.82;;;36.80;51.50;;;;;;6301595;28;20186;-71
2021/06/20 10:39:12;;;;;;;6.85;6.30;;;37.30;49.60;;;;;;6317689;28;20179;-71
2021/06/20 10:42:14;;;;;;;7.38;6.75;;;37.60;49.30;;;;;;6319801;28;20166;-71
2021/06/20 10:45:34;;;;;;;6.47;5.90;;;37.70;48.40;;;;;;6318303;28;20571;-71
2021/06/20 10:48:37;;;;;;;7.30;6.68;;;37.10;49.10;;;;;;6317436;28;20186;-71
2021/06/20 10:51:39;;;;;;;7.35;6.55;;;36.60;50.30;;;;;;6319355;28;20178;-71
2021/06/20 10:54:41;;;;;;;6.57;6.07;;;36.40;51.10;;;;;;6316751;28;20185;-71
2021/06/20 10:57:52;;;;;;;7.18;6.60;;;36.80;52.50;;;;;;6317723;28;20198;-71
2021/06/20 11:01:12;;;;;;;6.90;6.40;;;37.10;51.70;;;;;;6318784;28;20174;-71
2021/06/20 11:04:14;;;;;;;6.13;5.72;;;37.60;51.40;;;;;;6318015;28;20457;-71
2021/06/20 11:07:28;;;;;;;7.25;6.65;;;38.00;49.80;;;;;;6317481;28;20201;-71
2021/06/20 11:10:30;;;;;;;7.82;7.13;;;38.50;47.40;;;;;;6316585;28;20187;-71
2021/06/20 11:13:32;;;;;;;7.18;6.25;;;37.70;46.40;;;;;;6318965;28;20186;-71
2021/06/20 11:16:42;;;;;;;6.63;6.03;;;36.90;47.90;;;;;;6318698;28;20197;-71
2021/06/20 11:19:44;;;;;;;6.95;6.43;;;36.70;49.50;;;;;;6319423;28;20567;-71
2021/06/20 11:22:46;;;;;;;7.25;6.53;;;36.50;48.60;;;;;;6317562;28;20210;-71
2021/06/20 11:25:56;;;;;;;8.10;6.47;;;36.70;49.10;;;;;;6317342;28;20190;-71
2021/06/20 11:29:06;;;;;;;7.72;7.05;;;37.00;48.70;;;;;;6317599;28;20202;-71
2021/06/20 11:32:21;;;;;;;6.80;6.30;;;36.50;49.40;;;;;;6318960;28;20175;-71
2021/06/20 11:35:28;;;;;;;7.75;7.15;;;36.20;50.40;;;;;;6319574;28;20178;-71
2021/06/20 11:38:31;;;;;;;6.28;5.68;;;36.20;51.50;;;;;;6319273;28;20288;-71
2021/06/20 11:41:46;;;;;;;6.78;6.28;;;36.70;51.80;;;;;;6323572;28;20558;-71
2021/06/20 11:44:58;;;;;;;7.88;6.75;;;37.40;48.00;;;;;;6323040;28;20202;-71
2021/06/20 11:48:02;;;;;;;7.07;6.47;;;37.50;49.10;;;;;;6322074;28;20568;-71
2021/06/20 11:51:05;;;;;;;7.03;6.32;;;37.40;46.60;;;;;;6321873;28;20187;-71
2021/06/20 11:54:24;;;;;;;11.90;6.35;;;37.80;46.90;;;;;;6321130;28;20615;-71
2021/06/20 11:57:26;;;;;;;6.93;6.25;;;37.50;46.10;;;;;;6322267;28;20582;-71
2021/06/20 12:00:28;;;;;;;7.53;7.03;;;37.20;46.80;;;;;;6321666;28;20681;-71
2021/06/20 12:03:34;;;;;;;8.27;7.57;;;37.40;47.50;;;;;;6319620;28;20257;-71
2021/06/20 12:06:37;;;;;;;7.43;6.82;;;37.10;46.70;;;;;;6319678;28;20199;-71
2021/06/20 12:09:40;;;;;;;7.47;6.78;;;36.90;46.20;;;;;;6320847;28;20182;-71
2021/06/20 12:12:42;;;;;;;7.25;6.65;;;37.00;46.20;;;;;;6321952;28;20233;-71
2021/06/20 12:15:45;;;;;;;6.82;6.30;;;37.00;45.70;;;;;;6320389;28;20247;-71
2021/06/20 12:18:48;;;;;;;6.93;6.43;;;37.40;46.50;;;;;;6321666;28;20667;-71
2021/06/20 12:22:02;;;;;;;7.18;6.57;;;37.90;46.50;;;;;;6320747;28;20222;-71
2021/06/20 12:25:05;;;;;;;7.13;6.43;;;38.50;46.30;;;;;;6322454;28;20209;-71
2021/06/20 12:28:11;;;;;;;6.80;6.25;;;38.80;43.80;;;;;;6321052;28;20209;-71
2021/06/20 12:31:14;;;;;;;7.80;7.10;;;38.90;45.70;;;;;;6320587;28;20669;-71
2021/06/20 12:34:16;;;;;;;6.90;6.30;;;38.80;44.10;;;;;;6320911;28;20208;-71
2021/06/20 12:37:20;;;;;;;6.80;6.25;;;38.60;44.90;;;;;;6321632;28;20213;-71
2021/06/20 12:40:27;;;;;;;6.07;5.60;;;38.70;44.80;;;;;;6321027;28;20213;-71
2021/06/20 12:43:29;;;;;;;7.03;6.32;;;38.90;45.80;;;;;;6320389;28;20214;-71
2021/06/20 12:46:37;;;;;;;7.50;6.88;;;39.00;45.10;;;;;;6320804;28;20183;-71
2021/06/20 12:49:45;;;;;;;6.40;5.93;;;39.40;44.30;;;;;;6321603;28;20163;-71
2021/06/20 12:52:50;;;;;;;7.30;6.60;;;39.60;44.60;;;;;;6321426;28;20671;-71
2021/06/20 12:55:52;;;;;;;6.70;6.10;;;39.70;43.50;;;;;;6322157;28;20178;-71
2021/06/20 12:59:00;;;;;;;6.20;5.70;;;39.40;44.60;;;;;;6321108;28;20277;-71
2021/06/20 13:02:04;;;;;;;9.02;6.65;;;39.20;44.90;;;;;;6320415;28;20230;-71
2021/06/20 13:05:07;;;;;;;6.10;5.70;;;38.80;44.40;;;;;;6321518;28;20210;-71
2021/06/20 13:08:11;;;;;;;6.35;5.85;;;38.50;46.50;;;;;;6319701;28;20186;-71
2021/06/20 13:11:14;;;;;;;6.65;6.15;;;38.30;46.60;;;;;;6319964;28;20245;-71
2021/06/20 13:14:20;;;;;;;7.63;6.55;;;38.20;48.20;;;;;;6320816;28;20194;-71
2021/06/20 13:17:22;;;;;;;6.60;6.10;;;38.20;48.50;;;;;;6321309;28;20185;-71
2021/06/20 13:20:27;;;;;;;6.97;6.28;;;38.10;48.30;;;;;;6319734;28;20288;-71
2021/06/20 13:23:29;;;;;;;7.05;6.45;;;38.10;48.60;;;;;;6319916;28;20279;-71
2021/06/20 13:26:31;;;;;;;6.97;6.32;;;37.50;46.20;;;;;;6319824;28;20202;-71
2021/06/20 13:29:34;;;;;;;7.25;6.65;;;37.40;45.90;;;;;;6319336;28;20197;-71
2021/06/20 13:32:37;;;;;;;7.10;6.40;;;37.50;46.30;;;;;;6320938;28;20690;-71
2021/06/20 13:35:39;;;;;;;6.93;6.43;;;38.00;45.80;;;;;;6320663;28;20190;-71
2021/06/20 13:38:41;;;;;;;6.57;5.97;;;38.50;45.60;;;;;;6319676;28;20194;-71
2021/06/20 13:41:44;;;;;;;6.40;5.90;;;38.90;46.20;;;;;;6320845;28;20205;-71
2021/06/20 13:44:46;;;;;;;6.68;6.07;;;38.60;45.90;;;;;;6302119;28;20656;-71
2021/06/20 13:47:50;;;;;;;6.78;6.28;;;38.40;46.70;;;;;;6320491;28;20186;-71
2021/06/20 13:50:52;;;;;;;6.55;6.05;;;38.30;47.00;;;;;;6318825;28;20197;-71
2021/06/20 13:53:55;;;;;;;6.47;6.03;;;38.40;48.20;;;;;;6320354;28;20250;-71
2021/06/20 13:56:57;;;;;;;6.90;6.32;;;38.50;48.40;;;;;;6320168;28;20346;-71
2021/06/20 14:00:00;;;;;;;6.25;5.75;;;38.40;48.40;;;;;;6319856;28;20186;-71
2021/06/20 14:03:02;;;;;;;7.13;6.13;;;38.30;48.60;;;;;;6319495;28;20212;-71
2021/06/20 14:06:05;;;;;;;7.03;6.30;;;38.10;48.10;;;;;;6319282;28;20241;-71
2021/06/20 14:09:07;;;;;;;7.07;6.47;;;37.60;48.40;;;;;;6320643;28;20189;-71
2021/06/20 14:12:10;;;;;;;7.03;6.45;;;37.50;49.60;;;;;;6318415;28;20592;-71
2021/06/20 14:15:13;;;;;;;6.47;5.95;;;37.80;49.60;;;;;;6319999;28;20555;-71
2021/06/20 14:18:16;;;;;;;7.05;6.32;;;38.20;49.30;;;;;;6318734;28;20186;-71
2021/06/20 14:21:18;;;;;;;6.25;5.82;;;38.60;46.90;;;;;;6318225;28;20297;-71
2021/06/20 14:24:21;;;;;;;7.57;6.57;;;38.80;48.40;;;;;;6319875;28;20210;-71
2021/06/20 14:27:23;;;;;;;6.75;6.15;;;38.90;47.00;;;;;;6318104;28;20562;-71
2021/06/20 14:30:25;;;;;;;7.13;6.30;;;38.90;48.10;;;;;;6318593;28;20190;-71
2021/06/20 14:33:28;;;;;;;6.22;5.72;;;39.40;48.80;;;;;;6318441;28;20193;-71
2021/06/20 14:36:30;;;;;;;6.40;5.85;;;39.60;43.40;;;;;;6317947;28;20397;-71
2021/06/20 14:39:32;;;;;;;7.60;5.72;;;40.00;42.60;;;;;;6325038;28;20623;-71
2021/06/20 14:42:35;;;;;;;6.25;5.75;;;40.70;45.40;;;;;;6318518;28;20194;-71
2021/06/20 14:45:37;;;;;;;6.30;5.80;;;41.20;41.80;;;;;;6319525;28;20205;-71
2021/06/20 14:48:39;;;;;;;6.35;5.85;;;41.30;41.10;;;;;;6320476;28;20185;-71
2021/06/20 14:51:42;;;;;;;5.78;5.38;;;40.40;41.40;;;;;;6318062;28;20178;-71
2021/06/20 14:54:45;;;;;;;6.40;5.80;;;39.70;44.40;;;;;;6318848;28;20186;-71
2021/06/20 14:57:47;;;;;;;6.53;5.93;;;38.70;44.20;;;;;;6318883;28;20194;-71
2021/06/20 15:00:49;;;;;;;6.22;5.72;;;38.30;46.20;;;;;;6320135;28;20620;-71
2021/06/20 15:03:51;;;;;;;6.28;5.78;;;38.20;46.70;;;;;;6318934;28;20206;-71
2021/06/20 15:06:56;;;;;;;5.90;5.35;;;37.90;47.80;;;;;;6320210;28;20186;-71
2021/06/20 15:09:59;;;;;;;5.90;5.45;;;38.10;48.30;;;;;;6318090;28;20323;-71
2021/06/20 15:13:01;;;;;;;5.97;5.53;;;38.10;48.30;;;;;;6318885;28;20320;-71
2021/06/20 15:16:04;;;;;;;5.95;5.50;;;38.20;48.10;;;;;;6323954;28;20192;-71
2021/06/20 15:19:07;;;;;;;5.93;5.47;;;38.40;47.70;;;;;;6323995;28;20197;-71
2021/06/20 15:22:09;;;;;;;6.03;5.38;;;38.50;47.40;;;;;;6324539;28;20190;-71
2021/06/20 15:25:12;;;;;;;6.25;5.65;;;39.00;47.40;;;;;;6324338;28;20223;-71
2021/06/20 15:28:15;;;;;;;6.10;5.53;;;39.70;47.00;;;;;;6322555;28;20286;-71
2021/06/20 15:31:17;;;;;;;6.25;5.75;;;40.50;45.80;;;;;;6323861;28;20267;-71
2021/06/20 15:34:19;;;;;;;6.05;5.45;;;41.10;44.30;;;;;;6322182;28;20683;-71
2021/06/20 15:37:21;;;;;;;5.78;5.35;;;41.70;44.40;;;;;;6322771;28;20225;-71
2021/06/20 15:40:29;;;;;;;6.40;5.80;;;42.00;43.80;;;;;;6324114;28;20244;-71
2021/06/20 15:43:31;;;;;;;6.28;5.78;;;42.30;42.40;;;;;;6322408;28;20178;-71
2021/06/20 15:46:35;;;;;;;6.78;6.28;;;42.50;42.30;;;;;;6322499;28;20204;-71
2021/06/20 15:49:38;;;;;;;6.88;6.30;;;42.60;39.10;;;;;;6321902;28;20205;-71